createdAt,value
2022-08-02T00:02:24.912Z,21.44
2022-08-02T00:07:26.844Z,21.44
2022-08-02T00:12:28.668Z,21.39
2022-08-02T00:17:30.503Z,21.45
2022-08-02T00:22:32.460Z,21.60
2022-08-02T00:27:34.338Z,21.69
2022-08-02T00:32:36.229Z,21.77
2022-08-02T00:37:42.378Z,21.77
2022-08-02T00:42:44.349Z,21.55
2022-08-02T00:47:46.185Z,21.39
2022-08-02T00:52:47.999Z,20.83
2022-08-02T00:57:50.201Z,20.54
2022-08-02T01:02:52.139Z,20.33
2022-08-02T01:07:53.954Z,20.26
2022-08-02T01:12:55.956Z,20.23
2022-08-02T01:18:10.074Z,20.13
2022-08-02T01:23:30.749Z,20.20
2022-08-02T01:28:43.510Z,20.28
2022-08-02T01:33:53.981Z,20.27
2022-08-02T01:38:56.391Z,20.08
2022-08-02T01:44:00.517Z,19.84
2022-08-02T01:49:08.459Z,19.76
2022-08-02T01:54:14.509Z,19.85
2022-08-02T01:59:21.278Z,19.73
2022-08-02T02:04:25.326Z,19.56
2022-08-02T02:09:30.712Z,19.44
2022-08-02T02:14:35.014Z,19.37
2022-08-02T02:19:38.734Z,19.29
2022-08-02T02:24:40.601Z,19.30
2022-08-02T02:29:47.460Z,19.35
2022-08-02T02:34:51.164Z,19.40
2022-08-02T02:39:55.284Z,19.28
2022-08-02T02:44:58.612Z,19.14
2022-08-02T02:50:01.182Z,19.03
2022-08-02T02:55:04.093Z,19.00
2022-08-02T03:00:09.752Z,19.08
2022-08-02T03:05:13.160Z,18.97
2022-08-02T03:10:14.960Z,18.89
2022-08-02T03:15:18.049Z,18.83
2022-08-02T03:20:20.709Z,18.85
2022-08-02T03:25:22.552Z,18.92
2022-08-02T03:30:27.005Z,18.78
2022-08-02T03:35:29.030Z,18.74
2022-08-02T03:40:31.800Z,18.63
2022-08-02T03:45:34.508Z,18.60
2022-08-02T03:50:37.699Z,18.74
2022-08-02T03:55:40.255Z,18.95
2022-08-02T04:00:42.148Z,19.17
2022-08-02T04:06:03.948Z,19.27
2022-08-02T04:11:30.062Z,19.25
2022-08-02T04:16:39.996Z,19.45
2022-08-02T04:21:50.489Z,19.72
2022-08-02T04:27:06.477Z,19.87
2022-08-02T04:32:22.203Z,19.93
2022-08-02T04:37:25.193Z,20.02
2022-08-02T04:42:27.531Z,19.95
2022-08-02T04:48:01.855Z,19.80
2022-08-02T04:52:51.190Z,19.87
2022-08-02T04:57:55.838Z,19.77
2022-08-02T05:02:59.362Z,19.71
2022-08-02T05:08:01.378Z,19.55
2022-08-02T05:13:05.522Z,19.51
2022-08-02T05:18:07.382Z,19.60
2022-08-02T05:23:09.194Z,19.70
2022-08-02T05:28:11.798Z,19.86
2022-08-02T05:33:14.110Z,20.06
2022-08-02T05:38:15.990Z,20.15
2022-08-02T05:43:17.831Z,20.17
2022-08-02T05:48:25.474Z,20.41
2022-08-02T05:53:34.148Z,20.63
2022-08-02T05:58:54.734Z,20.80
2022-08-02T06:03:59.617Z,21.04
2022-08-02T06:09:08.791Z,21.31
2022-08-02T06:14:11.023Z,21.45
2022-08-02T06:19:13.056Z,21.59
2022-08-02T06:24:19.068Z,21.77
2022-08-02T06:29:23.353Z,22.08
2022-08-02T06:34:25.339Z,22.38
2022-08-02T06:39:44.969Z,22.70
2022-08-02T06:44:48.959Z,22.96
2022-08-02T06:49:54.166Z,23.25
2022-08-02T06:54:58.755Z,23.59
2022-08-02T07:00:06.698Z,24.03
2022-08-02T07:05:09.302Z,24.41
2022-08-02T07:10:11.701Z,24.73
2022-08-02T07:15:13.909Z,24.81
2022-08-02T07:20:16.376Z,24.96
2022-08-02T07:25:18.454Z,25.08
2022-08-02T07:30:20.701Z,25.26
2022-08-02T07:35:22.655Z,25.37
2022-08-02T07:40:25.231Z,25.42
2022-08-02T07:45:28.116Z,25.23
2022-08-02T07:50:30.106Z,25.15
2022-08-02T07:55:39.405Z,25.48
2022-08-02T08:00:43.844Z,25.74
2022-08-02T08:05:45.770Z,26.00
2022-08-02T08:10:47.632Z,26.08
2022-08-02T08:15:51.596Z,26.13
2022-08-02T08:20:54.837Z,26.30
2022-08-02T08:25:56.805Z,26.50
2022-08-02T08:30:58.822Z,26.69
2022-08-02T08:36:02.499Z,26.76
2022-08-02T08:41:04.740Z,27.13
2022-08-02T08:46:12.294Z,27.44
2022-08-02T08:51:19.429Z,27.64
2022-08-02T08:56:21.679Z,27.86
2022-08-02T09:01:23.782Z,27.67
2022-08-02T09:06:26.175Z,27.56
2022-08-02T09:11:28.025Z,27.96
2022-08-02T09:16:37.124Z,28.49
2022-08-02T09:21:39.053Z,28.30
2022-08-02T09:26:42.467Z,28.41
2022-08-02T09:31:49.973Z,28.34
2022-08-02T09:36:54.371Z,28.31
2022-08-02T09:42:10.497Z,28.19
2022-08-02T09:47:17.142Z,28.22
2022-08-02T09:52:37.296Z,28.71
2022-08-02T09:57:51.089Z,29.19
2022-08-02T10:03:22.614Z,29.54
2022-08-02T10:08:26.017Z,29.49
2022-08-02T10:13:32.166Z,29.77
2022-08-02T10:18:39.788Z,29.77
2022-08-02T10:23:44.219Z,29.92
2022-08-02T10:29:04.020Z,29.92
2022-08-02T10:34:10.316Z,29.75
2022-08-02T10:39:30.901Z,29.62
2022-08-02T10:44:34.067Z,29.70
2022-08-02T10:49:49.669Z,29.81
2022-08-02T10:54:59.424Z,29.86
2022-08-02T11:00:17.238Z,29.84
2022-08-02T11:05:43.235Z,29.94
2022-08-02T11:10:45.653Z,29.83
2022-08-02T11:16:06.531Z,30.01
2022-08-02T11:21:28.350Z,30.40
2022-08-02T11:26:32.960Z,30.79
2022-08-02T11:31:43.681Z,31.00
2022-08-02T11:36:53.474Z,31.32
2022-08-02T11:42:01.103Z,31.28
2022-08-02T11:47:03.605Z,31.28
2022-08-02T11:52:06.898Z,31.30
2022-08-02T11:57:20.273Z,31.67
2022-08-02T12:02:28.934Z,31.51
2022-08-02T12:07:35.362Z,31.51
2022-08-02T12:12:52.204Z,31.79
2022-08-02T12:18:15.061Z,31.93
2022-08-02T12:23:16.917Z,32.04
2022-08-02T12:28:35.032Z,32.22
2022-08-02T12:33:51.597Z,32.30
2022-08-02T12:38:58.776Z,32.29
2022-08-02T12:44:01.541Z,32.19
2022-08-02T12:49:18.326Z,31.98
2022-08-02T12:54:31.124Z,31.98
2022-08-02T12:59:38.947Z,32.11
2022-08-02T13:04:41.562Z,32.23
2022-08-02T13:10:02.638Z,32.07
2022-08-02T13:15:12.577Z,31.90
2022-08-02T13:20:31.777Z,31.71
2022-08-02T13:25:33.723Z,31.58
2022-08-02T13:30:35.575Z,31.51
2022-08-02T13:35:37.429Z,31.27
2022-08-02T13:41:06.403Z,31.63
2022-08-02T13:46:08.323Z,31.87
2022-08-02T13:51:12.213Z,31.95
2022-08-02T13:56:16.872Z,31.92
2022-08-02T14:01:18.826Z,31.91
2022-08-02T14:06:21.811Z,31.54
2022-08-02T14:11:23.801Z,31.48
2022-08-02T14:16:33.094Z,31.50
2022-08-02T14:21:46.706Z,31.59
2022-08-02T14:26:50.461Z,32.03
2022-08-02T14:31:52.289Z,32.15
2022-08-02T14:36:55.601Z,31.62
2022-08-02T14:41:59.881Z,31.73
2022-08-02T14:47:02.588Z,31.69
2022-08-02T14:52:10.263Z,32.19
2022-08-02T14:57:12.250Z,32.22
2022-08-02T15:02:14.752Z,32.15
2022-08-02T15:07:16.678Z,31.99
2022-08-02T15:12:19.010Z,31.55
2022-08-02T15:17:20.850Z,31.48
2022-08-02T15:22:22.701Z,31.51
2022-08-02T15:27:26.113Z,31.34
2022-08-02T15:32:27.990Z,31.43
2022-08-02T15:37:32.309Z,31.40
2022-08-02T15:42:34.118Z,31.41
2022-08-02T15:47:36.196Z,31.42
2022-08-02T15:52:38.069Z,31.44
2022-08-02T15:57:39.967Z,31.40
2022-08-02T16:02:42.030Z,31.46
2022-08-02T16:07:44.889Z,31.49
2022-08-02T16:12:46.835Z,31.53
2022-08-02T16:17:54.423Z,31.57
2022-08-02T16:22:56.574Z,31.60
2022-08-02T16:28:07.601Z,31.56
2022-08-02T16:33:09.990Z,31.52
2022-08-02T16:38:12.174Z,31.51
2022-08-02T16:43:14.027Z,31.55
2022-08-02T16:48:15.936Z,31.54
2022-08-02T16:53:36.767Z,31.49
2022-08-02T16:58:39.993Z,31.46
2022-08-02T17:03:56.138Z,31.42
2022-08-02T17:08:59.198Z,31.39
2022-08-02T17:14:01.038Z,31.36
2022-08-02T17:19:02.969Z,31.29
2022-08-02T17:24:08.546Z,31.23
2022-08-02T17:29:15.662Z,30.97
2022-08-02T17:34:19.696Z,30.85
2022-08-02T17:39:33.899Z,30.92
2022-08-02T17:44:38.500Z,30.93
2022-08-02T17:49:44.242Z,30.88
2022-08-02T17:54:51.042Z,30.81
2022-08-02T18:00:03.560Z,30.74
2022-08-02T18:05:11.897Z,30.64
2022-08-02T18:10:15.522Z,30.51
2022-08-02T18:15:20.044Z,30.43
2022-08-02T18:20:22.284Z,30.37
2022-08-02T18:25:37.451Z,30.31
2022-08-02T18:30:46.505Z,30.25
2022-08-02T18:35:48.909Z,30.14
2022-08-02T18:40:51.407Z,30.03
2022-08-02T18:46:06.874Z,29.94
2022-08-02T18:51:16.434Z,29.79
2022-08-02T19:01:50.680Z,29.46
2022-08-02T19:06:53.020Z,29.34
2022-08-02T19:11:54.822Z,29.22
2022-08-02T19:16:59.520Z,29.11
2022-08-02T19:22:17.777Z,29.03
2022-08-02T19:27:32.228Z,28.85
2022-08-02T19:32:40.637Z,28.58
2022-08-02T19:37:45.000Z,28.36
2022-08-02T19:44:20.747Z,28.34
2022-08-02T19:48:15.567Z,28.25
2022-08-02T19:53:17.724Z,28.08
2022-08-02T19:58:19.522Z,27.84
2022-08-02T20:03:50.811Z,27.50
2022-08-02T20:08:53.470Z,27.34
2022-08-02T20:13:59.222Z,27.13
2022-08-02T20:19:04.526Z,27.01
2022-08-02T20:24:07.568Z,26.89
2022-08-02T20:29:09.805Z,26.87
2022-08-02T20:34:11.905Z,26.78
2022-08-02T20:39:15.080Z,26.65
2022-08-02T20:44:30.876Z,26.65
2022-08-02T20:49:41.008Z,26.62
2022-08-02T20:54:43.713Z,26.62
2022-08-02T20:59:51.906Z,26.71
2022-08-02T21:04:54.040Z,26.59
2022-08-02T21:09:56.624Z,26.51
2022-08-02T21:14:59.453Z,26.53
2022-08-02T21:20:01.904Z,26.55
2022-08-02T21:25:04.429Z,26.50
2022-08-02T21:30:11.325Z,26.43
2022-08-02T21:35:16.866Z,26.40
2022-08-02T21:40:19.397Z,26.23
2022-08-02T21:45:22.897Z,26.22
2022-08-02T21:50:25.741Z,26.17
2022-08-02T21:56:00.706Z,25.98
2022-08-02T22:00:50.091Z,25.92
2022-08-02T22:05:51.924Z,25.87
2022-08-02T22:11:01.645Z,25.75
2022-08-02T22:16:05.735Z,25.62
2022-08-02T22:21:14.250Z,25.59
2022-08-02T22:26:19.417Z,25.46
2022-08-02T22:31:40.674Z,25.32
2022-08-02T22:36:44.311Z,25.23
2022-08-02T22:42:01.745Z,25.09
2022-08-02T22:47:14.427Z,25.05
2022-08-02T22:52:17.198Z,24.98
2022-08-02T22:57:30.446Z,24.90
2022-08-02T22:58:46.367Z,29.64
2022-08-02T23:02:33.241Z,24.72
2022-08-02T23:07:36.306Z,24.63
2022-08-02T23:12:40.771Z,24.60
2022-08-02T23:18:01.023Z,24.59
2022-08-02T23:23:03.003Z,24.50
2022-08-02T23:28:13.518Z,24.27
2022-08-02T23:33:15.563Z,24.07
2022-08-02T23:38:17.382Z,24.12
2022-08-02T23:43:19.219Z,24.02
2022-08-02T23:48:21.010Z,23.90
2022-08-02T23:53:22.824Z,23.86
2022-08-02T23:58:24.731Z,23.85
